sensor_id;sensor_type;location;lat;lon;timestamp;pressure;altitude;pressure_sealevel;temperature;humidity
31761;BME280;18335;51.486;7.562;2023-06-14T00:00:22;100098.69;;;15.40;100.00
31761;BME280;18335;51.486;7.562;2023-06-14T00:02:49;100103.53;;;15.38;100.00
31761;BME280;18335;51.486;7.562;2023-06-14T00:05:15;100104.78;;;15.36;100.00
31761;BME280;18335;51.486;7.562;2023-06-14T00:07:42;100106.56;;;15.43;100.00
31761;BME280;18335;51.486;7.562;2023-06-14T00:10:10;100107.47;;;15.50;100.00
31761;BME280;18335;51.486;7.562;2023-06-14T00:12:39;100123.69;;;15.45;100.00
31761;BME280;18335;51.486;7.562;2023-06-14T00:15:06;100113.00;;;15.57;100.00
31761;BME280;18335;51.486;7.562;2023-06-14T00:17:35;100120.81;;;15.32;100.00
31761;BME280;18335;51.486;7.562;2023-06-14T00:20:03;100116.41;;;15.59;100.00
31761;BME280;18335;51.486;7.562;2023-06-14T00:22:33;100113.72;;;15.38;100.00
31761;BME280;18335;51.486;7.562;2023-06-14T00:25:02;100119.38;;;15.58;100.00
31761;BME280;18335;51.486;7.562;2023-06-14T00:27:28;100120.22;;;15.58;100.00
31761;BME280;18335;51.486;7.562;2023-06-14T00:29:57;100122.41;;;15.69;100.00
31761;BME280;18335;51.486;7.562;2023-06-14T00:32:26;100127.16;;;15.54;100.00
31761;BME280;18335;51.486;7.562;2023-06-14T00:34:55;100128.66;;;15.57;100.00
31761;BME280;18335;51.486;7.562;2023-06-14T00:37:22;100124.31;;;15.69;100.00
31761;BME280;18335;51.486;7.562;2023-06-14T00:39:48;100125.88;;;15.50;100.00
31761;BME280;18335;51.486;7.562;2023-06-14T00:42:23;100122.94;;;15.30;100.00
31761;BME280;18335;51.486;7.562;2023-06-14T00:44:50;100119.78;;;15.33;100.00
31761;BME280;18335;51.486;7.562;2023-06-14T00:47:19;100123.97;;;15.29;100.00
31761;BME280;18335;51.486;7.562;2023-06-14T00:49:46;100122.94;;;15.30;100.00
31761;BME280;18335;51.486;7.562;2023-06-14T00:52:14;100125.84;;;15.22;100.00
31761;BME280;18335;51.486;7.562;2023-06-14T00:54:42;100127.50;;;15.23;100.00
31761;BME280;18335;51.486;7.562;2023-06-14T00:57:09;100124.53;;;15.18;100.00
31761;BME280;18335;51.486;7.562;2023-06-14T00:59:38;100128.19;;;15.25;100.00
31761;BME280;18335;51.486;7.562;2023-06-14T01:02:07;100141.34;;;15.09;100.00
31761;BME280;18335;51.486;7.562;2023-06-14T01:04:56;100146.44;;;15.12;100.00
31761;BME280;18335;51.486;7.562;2023-06-14T01:07:30;100143.50;;;15.13;100.00
31761;BME280;18335;51.486;7.562;2023-06-14T01:10:10;100150.56;;;15.01;100.00
31761;BME280;18335;51.486;7.562;2023-06-14T01:12:44;100150.97;;;14.98;100.00
31761;BME280;18335;51.486;7.562;2023-06-14T01:15:15;100151.09;;;14.90;100.00
31761;BME280;18335;51.486;7.562;2023-06-14T01:17:42;100158.97;;;14.93;100.00
31761;BME280;18335;51.486;7.562;2023-06-14T01:20:15;100156.25;;;14.78;100.00
31761;BME280;18335;51.486;7.562;2023-06-14T01:22:50;100151.34;;;14.74;100.00
31761;BME280;18335;51.486;7.562;2023-06-14T01:25:18;100158.97;;;14.78;100.00
31761;BME280;18335;51.486;7.562;2023-06-14T01:27:47;100152.94;;;14.47;100.00
31761;BME280;18335;51.486;7.562;2023-06-14T01:30:16;100160.19;;;14.55;100.00
31761;BME280;18335;51.486;7.562;2023-06-14T01:32:44;100152.06;;;14.47;100.00
31761;BME280;18335;51.486;7.562;2023-06-14T01:35:11;100156.91;;;14.45;100.00
31761;BME280;18335;51.486;7.562;2023-06-14T01:37:39;100150.44;;;14.52;100.00
31761;BME280;18335;51.486;7.562;2023-06-14T01:40:09;100155.03;;;14.45;100.00
31761;BME280;18335;51.486;7.562;2023-06-14T01:42:37;100148.69;;;14.45;100.00
31761;BME280;18335;51.486;7.562;2023-06-14T01:45:07;100148.38;;;14.39;100.00
31761;BME280;18335;51.486;7.562;2023-06-14T01:47:36;100159.47;;;14.31;100.00
31761;BME280;18335;51.486;7.562;2023-06-14T01:50:03;100156.81;;;14.23;100.00
31761;BME280;18335;51.486;7.562;2023-06-14T01:52:30;100161.09;;;13.97;100.00
31761;BME280;18335;51.486;7.562;2023-06-14T01:54:57;100160.34;;;14.17;100.00
31761;BME280;18335;51.486;7.562;2023-06-14T01:57:28;100158.06;;;14.21;100.00
31761;BME280;18335;51.486;7.562;2023-06-14T01:59:55;100162.81;;;14.12;100.00
31761;BME280;18335;51.486;7.562;2023-06-14T02:02:24;100165.72;;;13.96;100.00
31761;BME280;18335;51.486;7.562;2023-06-14T02:04:52;100151.38;;;13.94;100.00
31761;BME280;18335;51.486;7.562;2023-06-14T02:07:22;100156.09;;;14.00;100.00
31761;BME280;18335;51.486;7.562;2023-06-14T02:09:50;100157.50;;;14.11;100.00
31761;BME280;18335;51.486;7.562;2023-06-14T02:12:18;100155.72;;;14.03;100.00
31761;BME280;18335;51.486;7.562;2023-06-14T02:14:46;100157.97;;;14.14;100.00
31761;BME280;18335;51.486;7.562;2023-06-14T02:17:14;100150.38;;;14.16;100.00
31761;BME280;18335;51.486;7.562;2023-06-14T02:19:41;100157.41;;;14.04;100.00
31761;BME280;18335;51.486;7.562;2023-06-14T02:22:08;100162.13;;;14.10;100.00
31761;BME280;18335;51.486;7.562;2023-06-14T02:24:35;100151.63;;;13.99;100.00
31761;BME280;18335;51.486;7.562;2023-06-14T02:27:02;100153.81;;;14.18;100.00
31761;BME280;18335;51.486;7.562;2023-06-14T02:29:29;100158.84;;;13.85;100.00
31761;BME280;18335;51.486;7.562;2023-06-14T02:31:57;100148.69;;;13.86;100.00
31761;BME280;18335;51.486;7.562;2023-06-14T02:34:23;100168.25;;;13.68;100.00
31761;BME280;18335;51.486;7.562;2023-06-14T02:36:50;100157.97;;;13.70;100.00
31761;BME280;18335;51.486;7.562;2023-06-14T02:39:19;100169.88;;;13.77;100.00
31761;BME280;18335;51.486;7.562;2023-06-14T02:41:48;100169.59;;;13.72;100.00
31761;BME280;18335;51.486;7.562;2023-06-14T02:44:17;100165.06;;;13.79;100.00
31761;BME280;18335;51.486;7.562;2023-06-14T02:46:44;100167.25;;;13.84;100.00
31761;BME280;18335;51.486;7.562;2023-06-14T02:49:13;100164.59;;;13.76;100.00
31761;BME280;18335;51.486;7.562;2023-06-14T02:51:39;100165.91;;;13.80;100.00
31761;BME280;18335;51.486;7.562;2023-06-14T02:54:06;100163.00;;;13.81;100.00
31761;BME280;18335;51.486;7.562;2023-06-14T02:56:33;100159.13;;;13.76;100.00
31761;BME280;18335;51.486;7.562;2023-06-14T02:59:01;100161.34;;;13.58;100.00
31761;BME280;18335;51.486;7.562;2023-06-14T03:01:28;100167.31;;;13.61;100.00
31761;BME280;18335;51.486;7.562;2023-06-14T03:04:03;100178.25;;;13.47;100.00
31761;BME280;18335;51.486;7.562;2023-06-14T03:06:33;100175.28;;;13.34;100.00
31761;BME280;18335;51.486;7.562;2023-06-14T03:09:01;100184.72;;;13.68;100.00
31761;BME280;18335;51.486;7.562;2023-06-14T03:11:30;100189.81;;;13.71;100.00
31761;BME280;18335;51.486;7.562;2023-06-14T03:13:58;100198.22;;;13.55;100.00
31761;BME280;18335;51.486;7.562;2023-06-14T03:16:26;100191.69;;;13.56;100.00
31761;BME280;18335;51.486;7.562;2023-06-14T03:18:54;100197.22;;;13.34;100.00
31761;BME280;18335;51.486;7.562;2023-06-14T03:21:24;100194.03;;;13.45;100.00
31761;BME280;18335;51.486;7.562;2023-06-14T03:23:53;100207.94;;;13.43;100.00
31761;BME280;18335;51.486;7.562;2023-06-14T03:26:21;100216.22;;;13.12;100.00
31761;BME280;18335;51.486;7.562;2023-06-14T03:28:50;100210.25;;;13.32;100.00
31761;BME280;18335;51.486;7.562;2023-06-14T03:31:18;100214.88;;;13.31;100.00
31761;BME280;18335;51.486;7.562;2023-06-14T03:33:45;100215.09;;;13.44;100.00
31761;BME280;18335;51.486;7.562;2023-06-14T03:36:12;100218.53;;;13.23;100.00
31761;BME280;18335;51.486;7.562;2023-06-14T03:38:39;100220.03;;;13.49;100.00
31761;BME280;18335;51.486;7.562;2023-06-14T03:41:07;100229.66;;;13.45;100.00
31761;BME280;18335;51.486;7.562;2023-06-14T03:43:35;100221.75;;;13.50;100.00
31761;BME280;18335;51.486;7.562;2023-06-14T03:46:01;100228.78;;;13.44;100.00
31761;BME280;18335;51.486;7.562;2023-06-14T03:48:30;100228.34;;;13.41;100.00
31761;BME280;18335;51.486;7.562;2023-06-14T03:50:57;100240.63;;;13.45;100.00
31761;BME280;18335;51.486;7.562;2023-06-14T03:53:24;100239.34;;;13.32;100.00
31761;BME280;18335;51.486;7.562;2023-06-14T03:55:53;100238.41;;;13.25;100.00
31761;BME280;18335;51.486;7.562;2023-06-14T03:58:24;100243.81;;;13.03;100.00
31761;BME280;18335;51.486;7.562;2023-06-14T04:00:51;100243.34;;;13.45;100.00
31761;BME280;18335;51.486;7.562;2023-06-14T04:03:18;100252.72;;;13.73;100.00
31761;BME280;18335;51.486;7.562;2023-06-14T04:05:45;100249.75;;;13.60;100.00
31761;BME280;18335;51.486;7.562;2023-06-14T04:08:14;100256.56;;;13.64;100.00
31761;BME280;18335;51.486;7.562;2023-06-14T04:10:44;100268.44;;;13.56;100.00
31761;BME280;18335;51.486;7.562;2023-06-14T04:13:13;100266.09;;;13.68;100.00
31761;BME280;18335;51.486;7.562;2023-06-14T04:15:42;100259.25;;;13.86;100.00
31761;BME280;18335;51.486;7.562;2023-06-14T04:18:15;100261.66;;;14.04;100.00
31761;BME280;18335;51.486;7.562;2023-06-14T04:20:42;100275.56;;;14.03;100.00
31761;BME280;18335;51.486;7.562;2023-06-14T04:23:13;100271.50;;;14.13;100.00
31761;BME280;18335;51.486;7.562;2023-06-14T04:25:41;100272.75;;;14.25;100.00
31761;BME280;18335;51.486;7.562;2023-06-14T04:28:11;100280.94;;;14.33;100.00
31761;BME280;18335;51.486;7.562;2023-06-14T04:30:37;100276.56;;;14.54;100.00
31761;BME280;18335;51.486;7.562;2023-06-14T04:33:07;100270.59;;;14.65;100.00
31761;BME280;18335;51.486;7.562;2023-06-14T04:35:35;100266.19;;;14.85;100.00
31761;BME280;18335;51.486;7.562;2023-06-14T04:38:03;100276.72;;;14.81;100.00
31761;BME280;18335;51.486;7.562;2023-06-14T04:40:35;100274.94;;;14.74;100.00
31761;BME280;18335;51.486;7.562;2023-06-14T04:43:09;100276.59;;;15.04;100.00
31761;BME280;18335;51.486;7.562;2023-06-14T04:45:39;100277.97;;;15.15;100.00
31761;BME280;18335;51.486;7.562;2023-06-14T04:48:08;100276.06;;;15.15;100.00
31761;BME280;18335;51.486;7.562;2023-06-14T04:50:36;100280.75;;;15.36;100.00
31761;BME280;18335;51.486;7.562;2023-06-14T04:53:03;100288.31;;;15.48;100.00
31761;BME280;18335;51.486;7.562;2023-06-14T04:55:33;100283.13;;;15.60;100.00
31761;BME280;18335;51.486;7.562;2023-06-14T04:58:00;100291.06;;;15.70;100.00
31761;BME280;18335;51.486;7.562;2023-06-14T05:00:28;100288.44;;;15.83;100.00
31761;BME280;18335;51.486;7.562;2023-06-14T05:02:56;100288.47;;;15.89;100.00
31761;BME280;18335;51.486;7.562;2023-06-14T05:05:24;100289.59;;;15.95;100.00
31761;BME280;18335;51.486;7.562;2023-06-14T05:07:51;100281.84;;;16.05;100.00
31761;BME280;18335;51.486;7.562;2023-06-14T05:10:17;100283.22;;;16.22;100.00
31761;BME280;18335;51.486;7.562;2023-06-14T05:12:45;100289.41;;;16.24;100.00
31761;BME280;18335;51.486;7.562;2023-06-14T05:15:14;100286.50;;;16.32;100.00
31761;BME280;18335;51.486;7.562;2023-06-14T05:17:41;100295.00;;;16.37;100.00
31761;BME280;18335;51.486;7.562;2023-06-14T05:20:08;100290.63;;;16.49;100.00
31761;BME280;18335;51.486;7.562;2023-06-14T05:22:37;100295.94;;;16.51;100.00
31761;BME280;18335;51.486;7.562;2023-06-14T05:25:05;100289.66;;;16.57;100.00
31761;BME280;18335;51.486;7.562;2023-06-14T05:27:31;100295.72;;;16.52;100.00
31761;BME280;18335;51.486;7.562;2023-06-14T05:30:01;100292.00;;;16.60;100.00
31761;BME280;18335;51.486;7.562;2023-06-14T05:32:29;100288.25;;;16.74;100.00
31761;BME280;18335;51.486;7.562;2023-06-14T05:34:56;100285.78;;;16.86;100.00
31761;BME280;18335;51.486;7.562;2023-06-14T05:37:23;100288.78;;;16.97;100.00
31761;BME280;18335;51.486;7.562;2023-06-14T05:39:51;100296.44;;;17.02;100.00
31761;BME280;18335;51.486;7.562;2023-06-14T05:42:18;100288.88;;;17.17;100.00
31761;BME280;18335;51.486;7.562;2023-06-14T05:44:45;100299.50;;;17.20;100.00
31761;BME280;18335;51.486;7.562;2023-06-14T05:47:12;100293.59;;;17.36;100.00
31761;BME280;18335;51.486;7.562;2023-06-14T05:49:39;100291.25;;;17.40;100.00
31761;BME280;18335;51.486;7.562;2023-06-14T05:52:07;100294.03;;;17.46;100.00
31761;BME280;18335;51.486;7.562;2023-06-14T05:54:34;100304.22;;;17.46;100.00
31761;BME280;18335;51.486;7.562;2023-06-14T05:57:02;100295.50;;;17.42;100.00
31761;BME280;18335;51.486;7.562;2023-06-14T05:59:30;100303.88;;;17.62;100.00
31761;BME280;18335;51.486;7.562;2023-06-14T06:01:58;100306.44;;;17.70;100.00
31761;BME280;18335;51.486;7.562;2023-06-14T06:04:24;100302.81;;;17.63;100.00
31761;BME280;18335;51.486;7.562;2023-06-14T06:06:51;100308.78;;;17.80;100.00
31761;BME280;18335;51.486;7.562;2023-06-14T06:09:18;100304.69;;;17.62;100.00
31761;BME280;18335;51.486;7.562;2023-06-14T06:11:45;100317.69;;;17.75;100.00
31761;BME280;18335;51.486;7.562;2023-06-14T06:14:13;100311.13;;;17.83;100.00
31761;BME280;18335;51.486;7.562;2023-06-14T06:16:40;100312.38;;;17.74;100.00
31761;BME280;18335;51.486;7.562;2023-06-14T06:19:07;100310.47;;;17.67;100.00
31761;BME280;18335;51.486;7.562;2023-06-14T06:21:34;100315.34;;;17.72;100.00
31761;BME280;18335;51.486;7.562;2023-06-14T06:24:01;100312.56;;;17.72;100.00
31761;BME280;18335;51.486;7.562;2023-06-14T06:26:30;100307.69;;;17.81;100.00
31761;BME280;18335;51.486;7.562;2023-06-14T06:28:57;100315.13;;;17.87;100.00
31761;BME280;18335;51.486;7.562;2023-06-14T06:31:26;100306.69;;;17.95;100.00
31761;BME280;18335;51.486;7.562;2023-06-14T06:33:53;100320.69;;;17.93;100.00
31761;BME280;18335;51.486;7.562;2023-06-14T06:36:20;100311.56;;;18.12;100.00
31761;BME280;18335;51.486;7.562;2023-06-14T06:38:50;100317.06;;;18.06;100.00
31761;BME280;18335;51.486;7.562;2023-06-14T06:41:18;100323.03;;;18.03;100.00
31761;BME280;18335;51.486;7.562;2023-06-14T06:43:45;100331.94;;;17.98;100.00
31761;BME280;18335;51.486;7.562;2023-06-14T06:46:15;100333.84;;;18.17;100.00
31761;BME280;18335;51.486;7.562;2023-06-14T06:48:45;100326.63;;;18.30;100.00
31761;BME280;18335;51.486;7.562;2023-06-14T06:51:11;100340.88;;;18.40;100.00
31761;BME280;18335;51.486;7.562;2023-06-14T06:53:42;100334.25;;;18.41;100.00
31761;BME280;18335;51.486;7.562;2023-06-14T06:56:09;100334.06;;;18.55;100.00
31761;BME280;18335;51.486;7.562;2023-06-14T06:58:36;100337.88;;;18.48;100.00
31761;BME280;18335;51.486;7.562;2023-06-14T07:01:03;100337.03;;;18.34;100.00
31761;BME280;18335;51.486;7.562;2023-06-14T07:03:30;100343.22;;;18.43;100.00
31761;BME280;18335;51.486;7.562;2023-06-14T07:05:58;100344.69;;;18.52;100.00
31761;BME280;18335;51.486;7.562;2023-06-14T07:08:25;100353.22;;;18.57;100.00
31761;BME280;18335;51.486;7.562;2023-06-14T07:10:53;100347.44;;;18.58;100.00
31761;BME280;18335;51.486;7.562;2023-06-14T07:13:19;100353.16;;;18.76;100.00
31761;BME280;18335;51.486;7.562;2023-06-14T07:15:47;100355.31;;;18.74;100.00
31761;BME280;18335;51.486;7.562;2023-06-14T07:18:14;100349.75;;;18.81;100.00
31761;BME280;18335;51.486;7.562;2023-06-14T07:20:41;100352.28;;;18.83;100.00
31761;BME280;18335;51.486;7.562;2023-06-14T07:23:10;100353.41;;;18.75;100.00
31761;BME280;18335;51.486;7.562;2023-06-14T07:25:36;100353.56;;;18.87;100.00
31761;BME280;18335;51.486;7.562;2023-06-14T07:28:03;100363.78;;;18.93;100.00
31761;BME280;18335;51.486;7.562;2023-06-14T07:30:30;100351.41;;;19.02;100.00
31761;BME280;18335;51.486;7.562;2023-06-14T07:32:57;100351.56;;;19.13;100.00
31761;BME280;18335;51.486;7.562;2023-06-14T07:35:24;100357.47;;;19.23;100.00
31761;BME280;18335;51.486;7.562;2023-06-14T07:37:51;100354.25;;;19.33;100.00
31761;BME280;18335;51.486;7.562;2023-06-14T07:40:19;100347.91;;;19.26;100.00
31761;BME280;18335;51.486;7.562;2023-06-14T07:42:47;100345.59;;;19.23;100.00
31761;BME280;18335;51.486;7.562;2023-06-14T07:45:15;100363.06;;;19.17;100.00
31761;BME280;18335;51.486;7.562;2023-06-14T07:47:42;100362.41;;;19.15;100.00
31761;BME280;18335;51.486;7.562;2023-06-14T07:50:09;100360.91;;;19.19;100.00
31761;BME280;18335;51.486;7.562;2023-06-14T07:52:38;100349.66;;;19.14;100.00
31761;BME280;18335;51.486;7.562;2023-06-14T07:55:05;100358.16;;;19.19;100.00
31761;BME280;18335;51.486;7.562;2023-06-14T07:57:33;100355.09;;;19.33;100.00
31761;BME280;18335;51.486;7.562;2023-06-14T08:00:00;100359.00;;;19.70;100.00
31761;BME280;18335;51.486;7.562;2023-06-14T08:02:37;100362.22;;;19.67;100.00
31761;BME280;18335;51.486;7.562;2023-06-14T08:05:05;100352.38;;;19.71;100.00
31761;BME280;18335;51.486;7.562;2023-06-14T08:07:31;100360.59;;;19.53;100.00
31761;BME280;18335;51.486;7.562;2023-06-14T08:09:58;100351.44;;;19.84;100.00
31761;BME280;18335;51.486;7.562;2023-06-14T08:12:26;100358.28;;;19.81;100.00
31761;BME280;18335;51.486;7.562;2023-06-14T08:14:54;100340.50;;;19.64;100.00
31761;BME280;18335;51.486;7.562;2023-06-14T08:17:21;100353.94;;;19.61;100.00
31761;BME280;18335;51.486;7.562;2023-06-14T08:19:47;100359.78;;;19.77;100.00
31761;BME280;18335;51.486;7.562;2023-06-14T08:22:15;100358.66;;;19.92;100.00
31761;BME280;18335;51.486;7.562;2023-06-14T08:24:43;100353.00;;;19.80;100.00
31761;BME280;18335;51.486;7.562;2023-06-14T08:27:10;100361.50;;;19.78;100.00
31761;BME280;18335;51.486;7.562;2023-06-14T08:29:38;100360.00;;;19.82;100.00
31761;BME280;18335;51.486;7.562;2023-06-14T08:32:07;100354.88;;;19.86;100.00
31761;BME280;18335;51.486;7.562;2023-06-14T08:34:34;100348.56;;;19.66;100.00
31761;BME280;18335;51.486;7.562;2023-06-14T08:37:01;100348.56;;;19.66;100.00
31761;BME280;18335;51.486;7.562;2023-06-14T08:39:28;100349.69;;;19.89;100.00
31761;BME280;18335;51.486;7.562;2023-06-14T08:41:54;100343.69;;;19.99;100.00
31761;BME280;18335;51.486;7.562;2023-06-14T08:44:22;100355.59;;;20.00;100.00
31761;BME280;18335;51.486;7.562;2023-06-14T08:46:50;100351.97;;;19.99;100.00
31761;BME280;18335;51.486;7.562;2023-06-14T08:49:20;100362.63;;;20.33;100.00
31761;BME280;18335;51.486;7.562;2023-06-14T08:51:50;100348.22;;;20.18;100.00
31761;BME280;18335;51.486;7.562;2023-06-14T08:54:22;100349.22;;;20.30;100.00
31761;BME280;18335;51.486;7.562;2023-06-14T08:56:49;100347.06;;;20.57;100.00
31761;BME280;18335;51.486;7.562;2023-06-14T08:59:17;100353.31;;;20.28;100.00
31761;BME280;18335;51.486;7.562;2023-06-14T09:01:46;100347.69;;;20.59;100.00
31761;BME280;18335;51.486;7.562;2023-06-14T09:04:14;100342.22;;;20.71;100.00
31761;BME280;18335;51.486;7.562;2023-06-14T09:06:42;100352.47;;;20.70;100.00
31761;BME280;18335;51.486;7.562;2023-06-14T09:09:10;100343.09;;;20.71;100.00
31761;BME280;18335;51.486;7.562;2023-06-14T09:11:37;100343.78;;;20.85;100.00
31761;BME280;18335;51.486;7.562;2023-06-14T09:14:04;100346.66;;;20.96;100.00
31761;BME280;18335;51.486;7.562;2023-06-14T09:16:32;100349.91;;;21.12;100.00
31761;BME280;18335;51.486;7.562;2023-06-14T09:18:59;100345.53;;;20.79;100.00
31761;BME280;18335;51.486;7.562;2023-06-14T09:21:25;100352.09;;;21.03;100.00
31761;BME280;18335;51.486;7.562;2023-06-14T09:23:54;100359.38;;;21.04;100.00
31761;BME280;18335;51.486;7.562;2023-06-14T09:26:21;100348.38;;;21.34;100.00
31761;BME280;18335;51.486;7.562;2023-06-14T09:28:49;100351.59;;;21.13;100.00
31761;BME280;18335;51.486;7.562;2023-06-14T09:31:17;100350.28;;;21.15;100.00
31761;BME280;18335;51.486;7.562;2023-06-14T09:33:45;100352.91;;;21.46;100.00
31761;BME280;18335;51.486;7.562;2023-06-14T09:36:15;100352.41;;;21.68;100.00
31761;BME280;18335;51.486;7.562;2023-06-14T09:38:43;100355.66;;;21.65;100.00
31761;BME280;18335;51.486;7.562;2023-06-14T09:41:19;100351.72;;;21.54;100.00
31761;BME280;18335;51.486;7.562;2023-06-14T09:43:46;100368.50;;;21.29;100.00
31761;BME280;18335;51.486;7.562;2023-06-14T09:46:13;100358.69;;;21.27;100.00
31761;BME280;18335;51.486;7.562;2023-06-14T09:48:41;100356.22;;;21.37;100.00
31761;BME280;18335;51.486;7.562;2023-06-14T09:51:09;100350.97;;;21.47;100.00
31761;BME280;18335;51.486;7.562;2023-06-14T09:53:37;100360.31;;;21.52;100.00
31761;BME280;18335;51.486;7.562;2023-06-14T09:56:06;100359.78;;;21.44;100.00
31761;BME280;18335;51.486;7.562;2023-06-14T09:58:37;100365.34;;;21.26;100.00
31761;BME280;18335;51.486;7.562;2023-06-14T10:01:07;100381.22;;;21.37;100.00
31761;BME280;18335;51.486;7.562;2023-06-14T10:03:35;100358.03;;;21.61;100.00
31761;BME280;18335;51.486;7.562;2023-06-14T10:06:05;100363.03;;;21.89;100.00
31761;BME280;18335;51.486;7.562;2023-06-14T10:08:36;100362.22;;;22.00;100.00
31761;BME280;18335;51.486;7.562;2023-06-14T10:11:03;100367.25;;;21.91;99.63
31761;BME280;18335;51.486;7.562;2023-06-14T10:13:31;100374.78;;;21.84;100.00
31761;BME280;18335;51.486;7.562;2023-06-14T10:16:05;100374.81;;;21.36;100.00
31761;BME280;18335;51.486;7.562;2023-06-14T10:18:40;100360.56;;;21.63;100.00
31761;BME280;18335;51.486;7.562;2023-06-14T10:21:18;100362.78;;;21.90;100.00
31761;BME280;18335;51.486;7.562;2023-06-14T10:23:49;100374.56;;;21.56;100.00
31761;BME280;18335;51.486;7.562;2023-06-14T10:26:22;100366.19;;;21.74;100.00
31761;BME280;18335;51.486;7.562;2023-06-14T10:28:57;100361.38;;;21.81;100.00
31761;BME280;18335;51.486;7.562;2023-06-14T10:31:42;100356.16;;;21.73;100.00
31761;BME280;18335;51.486;7.562;2023-06-14T10:34:10;100357.72;;;21.99;100.00
31761;BME280;18335;51.486;7.562;2023-06-14T10:36:38;100355.13;;;22.16;100.00
31761;BME280;18335;51.486;7.562;2023-06-14T10:39:07;100352.69;;;22.19;100.00
31761;BME280;18335;51.486;7.562;2023-06-14T10:41:36;100350.91;;;22.25;100.00
31761;BME280;18335;51.486;7.562;2023-06-14T10:44:40;100360.13;;;22.37;100.00
31761;BME280;18335;51.486;7.562;2023-06-14T10:47:10;100351.59;;;22.09;100.00
31761;BME280;18335;51.486;7.562;2023-06-14T10:49:40;100354.28;;;22.27;97.06
31761;BME280;18335;51.486;7.562;2023-06-14T10:52:11;100349.69;;;22.21;100.00
31761;BME280;18335;51.486;7.562;2023-06-14T10:55:04;100349.59;;;22.39;99.16
31761;BME280;18335;51.486;7.562;2023-06-14T10:57:35;100350.28;;;22.23;97.32
31761;BME280;18335;51.486;7.562;2023-06-14T11:00:03;100346.56;;;22.40;100.00
31761;BME280;18335;51.486;7.562;2023-06-14T11:02:51;100347.09;;;22.49;100.00
31761;BME280;18335;51.486;7.562;2023-06-14T11:05:24;100334.91;;;22.09;96.84
31761;BME280;18335;51.486;7.562;2023-06-14T11:07:58;100345.84;;;22.22;95.96
31761;BME280;18335;51.486;7.562;2023-06-14T11:10:36;100347.78;;;22.33;100.00
31761;BME280;18335;51.486;7.562;2023-06-14T11:13:04;100343.19;;;22.27;100.00
31761;BME280;18335;51.486;7.562;2023-06-14T11:15:31;100344.56;;;22.71;100.00
31761;BME280;18335;51.486;7.562;2023-06-14T11:18:02;100342.41;;;22.73;97.05
31761;BME280;18335;51.486;7.562;2023-06-14T11:20:30;100342.25;;;22.56;97.05
31761;BME280;18335;51.486;7.562;2023-06-14T11:22:57;100334.16;;;22.89;100.00
31761;BME280;18335;51.486;7.562;2023-06-14T11:25:25;100338.38;;;23.03;97.90
31761;BME280;18335;51.486;7.562;2023-06-14T11:27:54;100336.34;;;22.99;93.83
31761;BME280;18335;51.486;7.562;2023-06-14T11:30:21;100346.16;;;22.78;99.06
31761;BME280;18335;51.486;7.562;2023-06-14T11:32:49;100336.47;;;22.69;94.25
31761;BME280;18335;51.486;7.562;2023-06-14T11:35:19;100345.31;;;22.78;100.00
31761;BME280;18335;51.486;7.562;2023-06-14T11:37:46;100339.25;;;22.92;96.86
31761;BME280;18335;51.486;7.562;2023-06-14T11:40:13;100327.50;;;22.90;97.64
31761;BME280;18335;51.486;7.562;2023-06-14T11:42:41;100335.91;;;23.19;99.01
31761;BME280;18335;51.486;7.562;2023-06-14T11:45:09;100327.88;;;23.45;98.77
31761;BME280;18335;51.486;7.562;2023-06-14T11:47:36;100334.16;;;22.89;100.00
31761;BME280;18335;51.486;7.562;2023-06-14T11:50:05;100324.34;;;22.98;97.12
31761;BME280;18335;51.486;7.562;2023-06-14T11:52:33;100328.75;;;23.74;89.34
31761;BME280;18335;51.486;7.562;2023-06-14T11:55:01;100333.09;;;23.53;94.34
31761;BME280;18335;51.486;7.562;2023-06-14T11:57:30;100320.38;;;23.34;94.12
31761;BME280;18335;51.486;7.562;2023-06-14T12:00:00;100322.13;;;23.24;95.15
31761;BME280;18335;51.486;7.562;2023-06-14T12:02:37;100317.00;;;23.44;92.57
31761;BME280;18335;51.486;7.562;2023-06-14T12:05:04;100321.81;;;23.37;94.77
31761;BME280;18335;51.486;7.562;2023-06-14T12:07:34;100332.28;;;23.18;89.13
31761;BME280;18335;51.486;7.562;2023-06-14T12:10:06;100321.19;;;23.58;97.87
31761;BME280;18335;51.486;7.562;2023-06-14T12:12:35;100318.94;;;23.72;87.73
31761;BME280;18335;51.486;7.562;2023-06-14T12:15:04;100319.84;;;24.05;89.09
31761;BME280;18335;51.486;7.562;2023-06-14T12:17:32;100328.53;;;23.64;93.75
31761;BME280;18335;51.486;7.562;2023-06-14T12:20:05;100323.56;;;23.94;84.93
31761;BME280;18335;51.486;7.562;2023-06-14T12:22:37;100318.91;;;23.83;83.33
31761;BME280;18335;51.486;7.562;2023-06-14T12:25:05;100315.75;;;23.80;92.41
31761;BME280;18335;51.486;7.562;2023-06-14T12:27:32;100313.31;;;24.11;84.68
31761;BME280;18335;51.486;7.562;2023-06-14T12:30:00;100310.59;;;24.50;92.65
31761;BME280;18335;51.486;7.562;2023-06-14T12:32:27;100313.28;;;24.78;83.66
31761;BME280;18335;51.486;7.562;2023-06-14T12:34:54;100312.63;;;24.54;78.22
31761;BME280;18335;51.486;7.562;2023-06-14T12:37:21;100307.75;;;24.28;82.28
31761;BME280;18335;51.486;7.562;2023-06-14T12:39:49;100303.69;;;24.36;82.57
31761;BME280;18335;51.486;7.562;2023-06-14T12:42:16;100311.84;;;24.09;88.61
31761;BME280;18335;51.486;7.562;2023-06-14T12:44:43;100310.84;;;24.32;79.68
31761;BME280;18335;51.486;7.562;2023-06-14T12:47:10;100308.91;;;24.32;77.49